sensor_id;sensor_type;location;lat;lon;timestamp;noise_LAeq;noise_LA_min;noise_LA_max;noise_LA01;noise_LA95
72415;Laerm;60995;52.154;4.498;2023-11-19T00:01:32;46.80;40.93;55.87;;
72415;Laerm;60995;52.154;4.498;2023-11-19T00:03:49;46.26;40.32;65.77;;
72415;Laerm;60995;52.154;4.498;2023-11-19T00:06:07;46.34;39.89;54.44;;
72415;Laerm;60995;52.154;4.498;2023-11-19T00:08:26;48.04;40.62;60.22;;
72415;Laerm;60995;52.154;4.498;2023-11-19T00:10:43;46.90;40.37;59.55;;
72415;Laerm;60995;52.154;4.498;2023-11-19T00:12:59;49.25;41.17;62.89;;
72415;Laerm;60995;52.154;4.498;2023-11-19T00:15:17;48.42;39.98;56.96;;
72415;Laerm;60995;52.154;4.498;2023-11-19T00:17:34;48.43;40.89;59.87;;
72415;Laerm;60995;52.154;4.498;2023-11-19T00:19:50;47.19;40.79;58.48;;
72415;Laerm;60995;52.154;4.498;2023-11-19T00:22:07;46.53;40.74;67.61;;
72415;Laerm;60995;52.154;4.498;2023-11-19T00:24:23;47.71;41.03;56.49;;
72415;Laerm;60995;52.154;4.498;2023-11-19T00:26:40;47.36;40.05;66.39;;
72415;Laerm;60995;52.154;4.498;2023-11-19T00:28:56;47.11;40.65;67.13;;
72415;Laerm;60995;52.154;4.498;2023-11-19T00:31:13;47.02;41.61;57.50;;
72415;Laerm;60995;52.154;4.498;2023-11-19T00:33:30;47.63;39.49;63.73;;
72415;Laerm;60995;52.154;4.498;2023-11-19T00:35:47;49.02;41.89;66.60;;
72415;Laerm;60995;52.154;4.498;2023-11-19T00:38:04;46.56;41.89;58.95;;
72415;Laerm;60995;52.154;4.498;2023-11-19T00:40:21;46.07;40.15;64.47;;
72415;Laerm;60995;52.154;4.498;2023-11-19T00:42:39;46.89;41.32;54.64;;
72415;Laerm;60995;52.154;4.498;2023-11-19T00:44:55;48.31;39.29;57.19;;
72415;Laerm;60995;52.154;4.498;2023-11-19T00:47:11;48.09;39.05;66.08;;
72415;Laerm;60995;52.154;4.498;2023-11-19T00:49:28;45.88;40.83;52.57;;
72415;Laerm;60995;52.154;4.498;2023-11-19T00:51:44;46.73;40.70;60.05;;
72415;Laerm;60995;52.154;4.498;2023-11-19T00:54:01;46.04;39.20;54.65;;
72415;Laerm;60995;52.154;4.498;2023-11-19T00:56:17;46.86;39.59;68.07;;
72415;Laerm;60995;52.154;4.498;2023-11-19T00:58:35;46.40;39.86;54.05;;
72415;Laerm;60995;52.154;4.498;2023-11-19T01:00:54;45.06;39.10;54.25;;
72415;Laerm;60995;52.154;4.498;2023-11-19T01:03:10;44.72;39.38;66.21;;
72415;Laerm;60995;52.154;4.498;2023-11-19T01:05:27;44.62;39.86;51.85;;
72415;Laerm;60995;52.154;4.498;2023-11-19T01:07:44;46.34;40.64;59.00;;
72415;Laerm;60995;52.154;4.498;2023-11-19T01:10:00;45.34;38.72;70.45;;
72415;Laerm;60995;52.154;4.498;2023-11-19T01:12:16;46.13;40.89;55.70;;
72415;Laerm;60995;52.154;4.498;2023-11-19T01:14:33;45.06;39.97;52.55;;
72415;Laerm;60995;52.154;4.498;2023-11-19T01:16:49;46.86;41.18;57.43;;
72415;Laerm;60995;52.154;4.498;2023-11-19T01:19:07;45.38;39.66;52.01;;
72415;Laerm;60995;52.154;4.498;2023-11-19T01:21:23;46.98;41.02;54.76;;
72415;Laerm;60995;52.154;4.498;2023-11-19T01:23:41;46.58;40.87;55.04;;
72415;Laerm;60995;52.154;4.498;2023-11-19T01:25:59;45.51;39.62;61.72;;
72415;Laerm;60995;52.154;4.498;2023-11-19T01:28:15;45.73;40.26;53.34;;
72415;Laerm;60995;52.154;4.498;2023-11-19T01:30:31;47.42;39.32;66.41;;
72415;Laerm;60995;52.154;4.498;2023-11-19T01:32:48;48.42;40.69;55.26;;
72415;Laerm;60995;52.154;4.498;2023-11-19T01:35:04;46.76;41.18;66.24;;
72415;Laerm;60995;52.154;4.498;2023-11-19T01:37:20;44.85;39.39;66.51;;
72415;Laerm;60995;52.154;4.498;2023-11-19T01:39:37;46.91;40.74;57.57;;
72415;Laerm;60995;52.154;4.498;2023-11-19T01:41:53;45.65;38.89;62.19;;
72415;Laerm;60995;52.154;4.498;2023-11-19T01:44:10;49.76;40.26;65.02;;
72415;Laerm;60995;52.154;4.498;2023-11-19T01:46:30;48.89;39.88;60.30;;
72415;Laerm;60995;52.154;4.498;2023-11-19T01:48:48;46.14;39.71;53.30;;
72415;Laerm;60995;52.154;4.498;2023-11-19T01:51:05;45.90;38.06;58.02;;
72415;Laerm;60995;52.154;4.498;2023-11-19T01:53:23;45.65;38.83;57.74;;
72415;Laerm;60995;52.154;4.498;2023-11-19T01:55:40;46.25;40.60;57.20;;
72415;Laerm;60995;52.154;4.498;2023-11-19T01:58:01;45.57;38.00;57.20;;
72415;Laerm;60995;52.154;4.498;2023-11-19T02:00:18;45.64;38.25;59.12;;
72415;Laerm;60995;52.154;4.498;2023-11-19T02:02:35;45.97;39.02;58.46;;
72415;Laerm;60995;52.154;4.498;2023-11-19T02:04:52;47.26;39.47;64.69;;
72415;Laerm;60995;52.154;4.498;2023-11-19T02:07:09;46.23;39.22;65.13;;
72415;Laerm;60995;52.154;4.498;2023-11-19T02:09:26;47.19;38.17;69.84;;
72415;Laerm;60995;52.154;4.498;2023-11-19T02:11:43;48.41;40.71;61.31;;
72415;Laerm;60995;52.154;4.498;2023-11-19T02:13:59;47.19;40.44;68.58;;
72415;Laerm;60995;52.154;4.498;2023-11-19T02:16:15;47.66;40.28;62.03;;
72415;Laerm;60995;52.154;4.498;2023-11-19T02:18:32;47.28;40.76;63.66;;
72415;Laerm;60995;52.154;4.498;2023-11-19T02:20:50;46.60;39.83;60.25;;
72415;Laerm;60995;52.154;4.498;2023-11-19T02:23:06;48.24;40.92;58.01;;
72415;Laerm;60995;52.154;4.498;2023-11-19T02:25:32;49.90;45.32;59.23;;
72415;Laerm;60995;52.154;4.498;2023-11-19T02:27:54;46.50;39.99;64.47;;
72415;Laerm;60995;52.154;4.498;2023-11-19T02:30:12;46.22;40.15;54.67;;
72415;Laerm;60995;52.154;4.498;2023-11-19T02:32:48;48.41;42.10;60.13;;
72415;Laerm;60995;52.154;4.498;2023-11-19T02:35:06;50.14;44.51;66.56;;
72415;Laerm;60995;52.154;4.498;2023-11-19T02:37:23;46.06;39.38;68.14;;
72415;Laerm;60995;52.154;4.498;2023-11-19T02:39:40;45.16;39.51;66.40;;
72415;Laerm;60995;52.154;4.498;2023-11-19T02:41:59;47.00;39.77;58.65;;
72415;Laerm;60995;52.154;4.498;2023-11-19T02:44:16;49.95;41.86;61.18;;
72415;Laerm;60995;52.154;4.498;2023-11-19T02:46:33;48.04;38.92;65.49;;
72415;Laerm;60995;52.154;4.498;2023-11-19T02:48:49;45.56;39.31;53.16;;
72415;Laerm;60995;52.154;4.498;2023-11-19T02:51:06;44.88;38.74;61.21;;
72415;Laerm;60995;52.154;4.498;2023-11-19T02:53:26;49.00;39.92;57.82;;
72415;Laerm;60995;52.154;4.498;2023-11-19T02:55:44;49.00;42.31;65.90;;
72415;Laerm;60995;52.154;4.498;2023-11-19T02:58:04;48.37;40.59;60.02;;
72415;Laerm;60995;52.154;4.498;2023-11-19T03:00:35;47.06;40.45;54.75;;
72415;Laerm;60995;52.154;4.498;2023-11-19T03:02:56;46.10;38.64;57.13;;
72415;Laerm;60995;52.154;4.498;2023-11-19T03:05:15;49.19;41.67;55.37;;
72415;Laerm;60995;52.154;4.498;2023-11-19T03:07:32;46.45;38.47;69.03;;
72415;Laerm;60995;52.154;4.498;2023-11-19T03:09:48;45.63;38.78;51.50;;
72415;Laerm;60995;52.154;4.498;2023-11-19T03:12:06;48.01;39.31;57.89;;
72415;Laerm;60995;52.154;4.498;2023-11-19T03:14:23;49.82;44.61;55.19;;
72415;Laerm;60995;52.154;4.498;2023-11-19T03:16:39;47.30;39.49;67.08;;
72415;Laerm;60995;52.154;4.498;2023-11-19T03:18:55;46.99;39.08;63.66;;
72415;Laerm;60995;52.154;4.498;2023-11-19T03:21:12;46.38;39.74;54.79;;
72415;Laerm;60995;52.154;4.498;2023-11-19T03:23:28;49.69;39.00;68.54;;
72415;Laerm;60995;52.154;4.498;2023-11-19T03:25:45;49.22;39.27;56.81;;
72415;Laerm;60995;52.154;4.498;2023-11-19T03:28:03;45.66;39.84;65.02;;
72415;Laerm;60995;52.154;4.498;2023-11-19T03:30:21;47.71;39.48;58.90;;
72415;Laerm;60995;52.154;4.498;2023-11-19T03:32:38;47.35;40.38;63.57;;
72415;Laerm;60995;52.154;4.498;2023-11-19T03:34:55;48.78;43.48;53.36;;
72415;Laerm;60995;52.154;4.498;2023-11-19T03:37:11;45.32;38.93;53.62;;
72415;Laerm;60995;52.154;4.498;2023-11-19T03:39:28;44.73;38.91;52.52;;
72415;Laerm;60995;52.154;4.498;2023-11-19T03:41:45;45.70;37.70;64.29;;
72415;Laerm;60995;52.154;4.498;2023-11-19T03:44:04;48.98;41.60;57.77;;
72415;Laerm;60995;52.154;4.498;2023-11-19T03:46:21;49.24;41.05;61.92;;
72415;Laerm;60995;52.154;4.498;2023-11-19T03:48:37;46.54;39.76;66.97;;
72415;Laerm;60995;52.154;4.498;2023-11-19T03:50:55;46.70;40.23;64.13;;
72415;Laerm;60995;52.154;4.498;2023-11-19T03:53:12;44.70;38.55;64.28;;
72415;Laerm;60995;52.154;4.498;2023-11-19T03:55:29;48.78;43.04;61.95;;
72415;Laerm;60995;52.154;4.498;2023-11-19T03:57:45;44.77;38.96;53.15;;
72415;Laerm;60995;52.154;4.498;2023-11-19T04:00:03;46.98;40.92;61.46;;
72415;Laerm;60995;52.154;4.498;2023-11-19T04:02:26;46.44;40.27;53.74;;
72415;Laerm;60995;52.154;4.498;2023-11-19T04:04:43;47.38;40.22;53.03;;
72415;Laerm;60995;52.154;4.498;2023-11-19T04:07:01;46.81;39.34;65.74;;
72415;Laerm;60995;52.154;4.498;2023-11-19T04:09:19;43.76;39.28;50.72;;
72415;Laerm;60995;52.154;4.498;2023-11-19T04:11:35;45.08;38.47;61.85;;
72415;Laerm;60995;52.154;4.498;2023-11-19T04:13:52;45.02;38.57;52.93;;
72415;Laerm;60995;52.154;4.498;2023-11-19T04:16:08;48.68;43.24;68.86;;
72415;Laerm;60995;52.154;4.498;2023-11-19T04:18:25;47.21;40.50;65.06;;
72415;Laerm;60995;52.154;4.498;2023-11-19T04:20:41;44.42;38.58;57.83;;
72415;Laerm;60995;52.154;4.498;2023-11-19T04:23:01;44.57;39.53;50.64;;
72415;Laerm;60995;52.154;4.498;2023-11-19T04:25:17;48.57;39.70;68.29;;
72415;Laerm;60995;52.154;4.498;2023-11-19T04:27:35;47.51;41.27;55.45;;
72415;Laerm;60995;52.154;4.498;2023-11-19T04:29:52;46.28;40.51;66.97;;
72415;Laerm;60995;52.154;4.498;2023-11-19T04:32:10;47.48;39.06;68.83;;
72415;Laerm;60995;52.154;4.498;2023-11-19T04:34:26;49.21;41.43;64.41;;
72415;Laerm;60995;52.154;4.498;2023-11-19T04:36:43;48.51;40.61;56.13;;
72415;Laerm;60995;52.154;4.498;2023-11-19T04:39:01;46.29;40.25;61.00;;
72415;Laerm;60995;52.154;4.498;2023-11-19T04:41:17;46.88;40.75;55.69;;
72415;Laerm;60995;52.154;4.498;2023-11-19T04:43:33;47.06;41.24;55.22;;
72415;Laerm;60995;52.154;4.498;2023-11-19T04:45:50;47.88;40.00;54.46;;
72415;Laerm;60995;52.154;4.498;2023-11-19T04:48:06;47.10;40.62;53.03;;
72415;Laerm;60995;52.154;4.498;2023-11-19T04:50:22;49.39;40.91;60.32;;
72415;Laerm;60995;52.154;4.498;2023-11-19T04:52:39;48.18;41.45;59.52;;
72415;Laerm;60995;52.154;4.498;2023-11-19T04:55:01;48.15;41.86;63.62;;
72415;Laerm;60995;52.154;4.498;2023-11-19T04:57:17;50.97;42.00;63.99;;
72415;Laerm;60995;52.154;4.498;2023-11-19T04:59:34;46.51;40.18;67.30;;
72415;Laerm;60995;52.154;4.498;2023-11-19T05:01:50;46.65;40.55;60.41;;
72415;Laerm;60995;52.154;4.498;2023-11-19T05:04:08;45.92;39.18;67.51;;
72415;Laerm;60995;52.154;4.498;2023-11-19T05:06:34;49.93;42.51;58.55;;
72415;Laerm;60995;52.154;4.498;2023-11-19T05:08:51;46.31;39.98;53.93;;
72415;Laerm;60995;52.154;4.498;2023-11-19T05:11:07;47.52;40.41;61.97;;
72415;Laerm;60995;52.154;4.498;2023-11-19T05:13:23;47.61;41.57;53.99;;
72415;Laerm;60995;52.154;4.498;2023-11-19T05:15:40;46.12;38.65;64.87;;
72415;Laerm;60995;52.154;4.498;2023-11-19T05:17:56;47.36;40.61;53.25;;
72415;Laerm;60995;52.154;4.498;2023-11-19T05:20:12;45.55;39.82;52.00;;
72415;Laerm;60995;52.154;4.498;2023-11-19T05:22:31;48.39;40.01;58.96;;
72415;Laerm;60995;52.154;4.498;2023-11-19T05:24:48;48.95;41.60;57.16;;
72415;Laerm;60995;52.154;4.498;2023-11-19T05:27:05;49.52;43.18;59.80;;
72415;Laerm;60995;52.154;4.498;2023-11-19T05:29:22;47.51;40.46;58.37;;
72415;Laerm;60995;52.154;4.498;2023-11-19T05:31:39;47.71;41.29;67.39;;
72415;Laerm;60995;52.154;4.498;2023-11-19T05:33:55;49.82;41.51;62.50;;
72415;Laerm;60995;52.154;4.498;2023-11-19T05:36:12;48.65;42.28;66.51;;
72415;Laerm;60995;52.154;4.498;2023-11-19T05:38:29;48.39;41.92;61.14;;
72415;Laerm;60995;52.154;4.498;2023-11-19T05:40:45;45.86;40.28;67.95;;
72415;Laerm;60995;52.154;4.498;2023-11-19T05:43:07;45.14;39.39;57.83;;
72415;Laerm;60995;52.154;4.498;2023-11-19T05:45:23;47.33;38.80;56.77;;
72415;Laerm;60995;52.154;4.498;2023-11-19T05:47:41;47.22;40.66;61.28;;
72415;Laerm;60995;52.154;4.498;2023-11-19T05:49:57;48.13;39.49;56.58;;
72415;Laerm;60995;52.154;4.498;2023-11-19T05:52:14;47.22;39.93;61.11;;
72415;Laerm;60995;52.154;4.498;2023-11-19T05:54:30;46.59;40.22;62.11;;
72415;Laerm;60995;52.154;4.498;2023-11-19T05:56:49;48.81;41.34;61.03;;
72415;Laerm;60995;52.154;4.498;2023-11-19T05:59:07;45.49;39.53;51.20;;
72415;Laerm;60995;52.154;4.498;2023-11-19T06:01:30;45.75;39.55;64.54;;
72415;Laerm;60995;52.154;4.498;2023-11-19T06:03:47;47.51;41.05;57.64;;
72415;Laerm;60995;52.154;4.498;2023-11-19T06:06:06;44.53;38.83;66.96;;
72415;Laerm;60995;52.154;4.498;2023-11-19T06:08:22;46.24;40.93;61.01;;
72415;Laerm;60995;52.154;4.498;2023-11-19T06:10:40;47.18;39.67;57.51;;
72415;Laerm;60995;52.154;4.498;2023-11-19T06:13:00;46.11;39.35;68.55;;
72415;Laerm;60995;52.154;4.498;2023-11-19T06:15:16;45.90;38.78;52.87;;
72415;Laerm;60995;52.154;4.498;2023-11-19T06:17:32;47.13;40.46;60.00;;
72415;Laerm;60995;52.154;4.498;2023-11-19T06:19:50;44.84;39.16;58.71;;
72415;Laerm;60995;52.154;4.498;2023-11-19T06:22:07;46.10;40.43;52.39;;
72415;Laerm;60995;52.154;4.498;2023-11-19T06:24:24;45.29;38.43;53.51;;
72415;Laerm;60995;52.154;4.498;2023-11-19T06:26:40;48.17;42.06;64.39;;
72415;Laerm;60995;52.154;4.498;2023-11-19T06:28:56;48.50;40.47;59.85;;
72415;Laerm;60995;52.154;4.498;2023-11-19T06:31:13;47.87;40.84;63.40;;
72415;Laerm;60995;52.154;4.498;2023-11-19T06:33:32;49.49;40.22;74.44;;
72415;Laerm;60995;52.154;4.498;2023-11-19T06:35:48;47.31;41.57;57.24;;
72415;Laerm;60995;52.154;4.498;2023-11-19T06:38:05;48.66;40.83;62.84;;
72415;Laerm;60995;52.154;4.498;2023-11-19T06:40:21;46.91;40.55;61.69;;
72415;Laerm;60995;52.154;4.498;2023-11-19T06:42:38;47.50;40.77;65.46;;
72415;Laerm;60995;52.154;4.498;2023-11-19T06:44:54;48.28;42.28;54.92;;
72415;Laerm;60995;52.154;4.498;2023-11-19T06:47:13;49.01;41.97;67.53;;
72415;Laerm;60995;52.154;4.498;2023-11-19T06:49:29;48.10;41.85;55.10;;
72415;Laerm;60995;52.154;4.498;2023-11-19T06:51:45;53.93;42.30;68.61;;
72415;Laerm;60995;52.154;4.498;2023-11-19T06:54:02;49.67;41.45;60.30;;
72415;Laerm;60995;52.154;4.498;2023-11-19T06:56:23;53.56;41.64;70.33;;
72415;Laerm;60995;52.154;4.498;2023-11-19T06:58:40;51.76;42.59;63.42;;
72415;Laerm;60995;52.154;4.498;2023-11-19T07:00:56;47.85;41.73;58.96;;
72415;Laerm;60995;52.154;4.498;2023-11-19T07:03:12;50.04;42.21;58.86;;
72415;Laerm;60995;52.154;4.498;2023-11-19T07:05:29;49.38;41.84;63.91;;
72415;Laerm;60995;52.154;4.498;2023-11-19T07:07:46;51.22;41.08;65.49;;
72415;Laerm;60995;52.154;4.498;2023-11-19T07:10:03;51.88;43.81;64.71;;
72415;Laerm;60995;52.154;4.498;2023-11-19T07:12:20;52.39;41.86;68.36;;
72415;Laerm;60995;52.154;4.498;2023-11-19T07:14:37;47.90;41.73;63.40;;
72415;Laerm;60995;52.154;4.498;2023-11-19T07:16:53;49.32;40.96;60.80;;
72415;Laerm;60995;52.154;4.498;2023-11-19T07:19:10;48.03;41.90;55.60;;
72415;Laerm;60995;52.154;4.498;2023-11-19T07:21:27;46.86;41.94;59.20;;
72415;Laerm;60995;52.154;4.498;2023-11-19T07:23:46;48.46;41.71;58.65;;
72415;Laerm;60995;52.154;4.498;2023-11-19T07:26:05;47.13;41.44;54.31;;
72415;Laerm;60995;52.154;4.498;2023-11-19T07:28:24;48.04;40.49;59.85;;
72415;Laerm;60995;52.154;4.498;2023-11-19T07:30:40;47.99;41.25;61.01;;
72415;Laerm;60995;52.154;4.498;2023-11-19T07:32:57;46.04;39.98;57.51;;
72415;Laerm;60995;52.154;4.498;2023-11-19T07:35:14;45.38;38.89;52.19;;
72415;Laerm;60995;52.154;4.498;2023-11-19T07:37:34;46.43;41.28;58.61;;
72415;Laerm;60995;52.154;4.498;2023-11-19T07:39:51;48.31;41.11;63.72;;
72415;Laerm;60995;52.154;4.498;2023-11-19T07:42:07;48.22;42.64;64.82;;
72415;Laerm;60995;52.154;4.498;2023-11-19T07:44:25;48.72;42.37;60.15;;
72415;Laerm;60995;52.154;4.498;2023-11-19T07:46:42;48.96;41.11;61.41;;
72415;Laerm;60995;52.154;4.498;2023-11-19T07:49:01;46.50;39.64;61.81;;
72415;Laerm;60995;52.154;4.498;2023-11-19T07:51:18;47.26;40.84;63.88;;
72415;Laerm;60995;52.154;4.498;2023-11-19T07:53:35;46.96;41.21;54.67;;
72415;Laerm;60995;52.154;4.498;2023-11-19T07:55:54;48.10;40.27;67.54;;
72415;Laerm;60995;52.154;4.498;2023-11-19T07:58:11;48.48;42.34;62.35;;
72415;Laerm;60995;52.154;4.498;2023-11-19T08:00:27;49.11;42.12;66.07;;
72415;Laerm;60995;52.154;4.498;2023-11-19T08:02:43;49.02;41.99;61.55;;
72415;Laerm;60995;52.154;4.498;2023-11-19T08:04:59;49.74;43.46;63.08;;
72415;Laerm;60995;52.154;4.498;2023-11-19T08:07:18;48.79;41.75;60.88;;
72415;Laerm;60995;52.154;4.498;2023-11-19T08:09:35;47.20;41.58;62.11;;
72415;Laerm;60995;52.154;4.498;2023-11-19T08:11:54;47.37;41.12;59.04;;
72415;Laerm;60995;52.154;4.498;2023-11-19T08:14:12;48.18;40.51;56.82;;
72415;Laerm;60995;52.154;4.498;2023-11-19T08:16:28;49.12;42.19;59.81;;
72415;Laerm;60995;52.154;4.498;2023-11-19T08:18:45;48.60;42.81;56.70;;
72415;Laerm;60995;52.154;4.498;2023-11-19T08:21:04;50.90;42.38;71.24;;
72415;Laerm;60995;52.154;4.498;2023-11-19T08:23:20;48.21;42.59;68.00;;
72415;Laerm;60995;52.154;4.498;2023-11-19T08:25:39;49.57;42.10;67.03;;
72415;Laerm;60995;52.154;4.498;2023-11-19T08:27:55;51.23;43.06;59.47;;
72415;Laerm;60995;52.154;4.498;2023-11-19T08:30:12;50.86;44.70;67.96;;
72415;Laerm;60995;52.154;4.498;2023-11-19T08:32:29;50.66;45.58;62.62;;
72415;Laerm;60995;52.154;4.498;2023-11-19T08:34:48;51.84;44.79;66.92;;
72415;Laerm;60995;52.154;4.498;2023-11-19T08:37:07;52.93;45.80;64.97;;
72415;Laerm;60995;52.154;4.498;2023-11-19T08:39:24;49.82;43.58;59.40;;
72415;Laerm;60995;52.154;4.498;2023-11-19T08:41:40;52.67;45.46;63.18;;
72415;Laerm;60995;52.154;4.498;2023-11-19T08:43:57;53.48;43.27;70.30;;
72415;Laerm;60995;52.154;4.498;2023-11-19T08:46:14;49.71;43.10;58.95;;
72415;Laerm;60995;52.154;4.498;2023-11-19T08:48:30;51.02;43.39;61.77;;
72415;Laerm;60995;52.154;4.498;2023-11-19T08:50:49;54.92;46.28;66.91;;
72415;Laerm;60995;52.154;4.498;2023-11-19T08:53:08;52.95;45.39;64.10;;
72415;Laerm;60995;52.154;4.498;2023-11-19T08:55:24;51.25;44.80;62.14;;
72415;Laerm;60995;52.154;4.498;2023-11-19T08:57:45;49.04;44.34;55.97;;
72415;Laerm;60995;52.154;4.498;2023-11-19T09:00:04;49.32;43.80;54.88;;
72415;Laerm;60995;52.154;4.498;2023-11-19T09:02:29;49.55;43.74;66.50;;
72415;Laerm;60995;52.154;4.498;2023-11-19T09:04:45;53.27;45.40;64.97;;
72415;Laerm;60995;52.154;4.498;2023-11-19T09:07:01;49.49;43.83;55.74;;
72415;Laerm;60995;52.154;4.498;2023-11-19T09:09:17;50.47;42.21;68.22;;
72415;Laerm;60995;52.154;4.498;2023-11-19T09:11:34;51.09;44.19;63.04;;
72415;Laerm;60995;52.154;4.498;2023-11-19T09:13:50;50.38;43.28;60.68;;
72415;Laerm;60995;52.154;4.498;2023-11-19T09:16:07;49.88;42.91;62.81;;
72415;Laerm;60995;52.154;4.498;2023-11-19T09:18:23;52.11;43.82;62.36;;
72415;Laerm;60995;52.154;4.498;2023-11-19T09:20:39;53.28;45.84;63.30;;
72415;Laerm;60995;52.154;4.498;2023-11-19T09:22:55;51.09;43.90;69.63;;
72415;Laerm;60995;52.154;4.498;2023-11-19T09:25:12;50.50;44.38;57.37;;
72415;Laerm;60995;52.154;4.498;2023-11-19T09:27:32;52.99;46.16;64.53;;
72415;Laerm;60995;52.154;4.498;2023-11-19T09:29:49;50.44;44.58;55.64;;
72415;Laerm;60995;52.154;4.498;2023-11-19T09:32:07;53.65;43.96;65.70;;
72415;Laerm;60995;52.154;4.498;2023-11-19T09:34:23;50.39;43.02;57.87;;
72415;Laerm;60995;52.154;4.498;2023-11-19T09:36:39;50.70;43.41;62.02;;
72415;Laerm;60995;52.154;4.498;2023-11-19T09:39:02;52.97;43.58;68.51;;
72415;Laerm;60995;52.154;4.498;2023-11-19T09:41:20;49.55;44.27;57.47;;
72415;Laerm;60995;52.154;4.498;2023-11-19T09:43:39;49.94;44.01;63.65;;
72415;Laerm;60995;52.154;4.498;2023-11-19T09:45:58;50.09;44.63;60.81;;
72415;Laerm;60995;52.154;4.498;2023-11-19T09:48:25;52.83;43.30;69.95;;
72415;Laerm;60995;52.154;4.498;2023-11-19T09:50:42;54.12;45.40;68.10;;
72415;Laerm;60995;52.154;4.498;2023-11-19T09:52:58;55.07;45.63;77.38;;
72415;Laerm;60995;52.154;4.498;2023-11-19T09:55:15;49.81;44.69;58.29;;
72415;Laerm;60995;52.154;4.498;2023-11-19T09:57:34;51.69;45.46;65.59;;
72415;Laerm;60995;52.154;4.498;2023-11-19T09:59:54;51.52;45.41;61.92;;
72415;Laerm;60995;52.154;4.498;2023-11-19T10:02:12;53.32;45.73;65.14;;
72415;Laerm;60995;52.154;4.498;2023-11-19T10:04:33;52.10;44.83;62.27;;
72415;Laerm;60995;52.154;4.498;2023-11-19T10:06:51;51.03;45.21;59.54;;
72415;Laerm;60995;52.154;4.498;2023-11-19T10:09:08;50.69;44.76;60.82;;
72415;Laerm;60995;52.154;4.498;2023-11-19T10:11:24;50.96;44.38;59.27;;
72415;Laerm;60995;52.154;4.498;2023-11-19T10:13:40;51.54;44.81;61.20;;
72415;Laerm;60995;52.154;4.498;2023-11-19T10:15:58;50.41;44.23;64.84;;
72415;Laerm;60995;52.154;4.498;2023-11-19T10:18:14;50.10;44.75;59.30;;
72415;Laerm;60995;52.154;4.498;2023-11-19T10:20:37;55.17;46.84;70.02;;
72415;Laerm;60995;52.154;4.498;2023-11-19T10:22:56;51.42;44.66;61.81;;
72415;Laerm;60995;52.154;4.498;2023-11-19T10:25:25;51.33;45.51;60.99;;
72415;Laerm;60995;52.154;4.498;2023-11-19T10:27:41;51.35;43.27;60.14;;
72415;Laerm;60995;52.154;4.498;2023-11-19T10:30:01;54.16;45.66;69.25;;
72415;Laerm;60995;52.154;4.498;2023-11-19T10:32:17;51.46;44.14;62.78;;
72415;Laerm;60995;52.154;4.498;2023-11-19T10:34:33;55.73;46.85;71.78;;
72415;Laerm;60995;52.154;4.498;2023-11-19T10:36:50;51.64;45.22;67.13;;
72415;Laerm;60995;52.154;4.498;2023-11-19T10:39:06;51.78;44.18;65.38;;
72415;Laerm;60995;52.154;4.498;2023-11-19T10:41:32;52.32;43.57;60.19;;
72415;Laerm;60995;52.154;4.498;2023-11-19T10:43:49;55.82;45.36;74.64;;
72415;Laerm;60995;52.154;4.498;2023-11-19T10:46:10;52.66;48.03;64.31;;
72415;Laerm;60995;52.154;4.498;2023-11-19T10:48:27;54.88;47.53;72.81;;
72415;Laerm;60995;52.154;4.498;2023-11-19T10:50:46;51.67;45.90;59.71;;
72415;Laerm;60995;52.154;4.498;2023-11-19T10:53:08;53.30;46.61;64.67;;
72415;Laerm;60995;52.154;4.498;2023-11-19T10:55:35;52.63;46.23;60.19;;
72415;Laerm;60995;52.154;4.498;2023-11-19T10:57:52;53.00;46.69;63.35;;
72415;Laerm;60995;52.154;4.498;2023-11-19T11:00:19;54.39;47.91;72.11;;
72415;Laerm;60995;52.154;4.498;2023-11-19T11:02:41;52.35;46.17;59.71;;
72415;Laerm;60995;52.154;4.498;2023-11-19T11:04:59;53.77;47.14;68.23;;
72415;Laerm;60995;52.154;4.498;2023-11-19T11:07:21;53.51;46.55;70.96;;
72415;Laerm;60995;52.154;4.498;2023-11-19T11:09:41;50.15;45.03;57.03;;
72415;Laerm;60995;52.154;4.498;2023-11-19T11:11:59;51.66;45.85;60.08;;
72415;Laerm;60995;52.154;4.498;2023-11-19T11:14:18;51.46;45.70;63.39;;
72415;Laerm;60995;52.154;4.498;2023-11-19T11:16:37;51.00;44.65;61.90;;
72415;Laerm;60995;52.154;4.498;2023-11-19T11:18:58;54.15;45.59;64.93;;
72415;Laerm;60995;52.154;4.498;2023-11-19T11:21:21;52.43;45.25;65.56;;
72415;Laerm;60995;52.154;4.498;2023-11-19T11:27:22;50.28;45.46;62.63;;
72415;Laerm;60995;52.154;4.498;2023-11-19T11:32:51;52.44;46.58;65.48;;
72415;Laerm;60995;52.154;4.498;2023-11-19T11:38:13;51.11;45.05;58.57;;
72415;Laerm;60995;52.154;4.498;2023-11-19T11:40:30;53.01;46.55;68.60;;
72415;Laerm;60995;52.154;4.498;2023-11-19T11:42:47;53.68;47.04;68.14;;
72415;Laerm;60995;52.154;4.498;2023-11-19T11:45:09;52.50;46.35;62.75;;
72415;Laerm;60995;52.154;4.498;2023-11-19T11:50:09;51.72;45.35;63.72;;
72415;Laerm;60995;52.154;4.498;2023-11-19T11:52:25;53.44;45.48;69.36;;
72415;Laerm;60995;52.154;4.498;2023-11-19T11:54:42;51.43;46.68;60.15;;
72415;Laerm;60995;52.154;4.498;2023-11-19T11:57:19;50.81;45.51;59.87;;
72415;Laerm;60995;52.154;4.498;2023-11-19T11:59:43;51.10;45.53;65.87;;
72415;Laerm;60995;52.154;4.498;2023-11-19T12:02:03;51.03;45.92;56.52;;
72415;Laerm;60995;52.154;4.498;2023-11-19T12:04:19;52.34;46.25;67.35;;
72415;Laerm;60995;52.154;4.498;2023-11-19T12:06:36;52.25;44.93;66.95;;
72415;Laerm;60995;52.154;4.498;2023-11-19T12:08:59;55.06;44.93;79.84;;
72415;Laerm;60995;52.154;4.498;2023-11-19T12:11:16;54.45;47.99;68.48;;
72415;Laerm;60995;52.154;4.498;2023-11-19T12:13:56;53.25;46.54;63.71;;
72415;Laerm;60995;52.154;4.498;2023-11-19T12:16:14;53.47;45.93;68.27;;
72415;Laerm;60995;52.154;4.498;2023-11-19T12:18:31;50.98;45.15;57.41;;
72415;Laerm;60995;52.154;4.498;2023-11-19T12:20:48;53.81;45.66;63.64;;
72415;Laerm;60995;52.154;4.498;2023-11-19T12:23:05;55.07;46.27;67.04;;
72415;Laerm;60995;52.154;4.498;2023-11-19T12:25:24;53.17;46.29;63.30;;
72415;Laerm;60995;52.154;4.498;2023-11-19T12:27:44;52.49;45.19;71.92;;
72415;Laerm;60995;52.154;4.498;2023-11-19T12:30:03;53.16;46.97;60.55;;
72415;Laerm;60995;52.154;4.498;2023-11-19T12:32:20;50.95;44.54;68.70;;
72415;Laerm;60995;52.154;4.498;2023-11-19T12:34:37;54.00;46.92;71.00;;
72415;Laerm;60995;52.154;4.498;2023-11-19T12:36:53;53.58;48.66;60.35;;
72415;Laerm;60995;52.154;4.498;2023-11-19T12:39:10;53.86;49.12;67.11;;
72415;Laerm;60995;52.154;4.498;2023-11-19T12:41:28;60.33;49.25;76.75;;
72415;Laerm;60995;52.154;4.498;2023-11-19T12:43:45;53.67;48.73;67.03;;
72415;Laerm;60995;52.154;4.498;2023-11-19T12:46:02;53.33;48.10;67.41;;
72415;Laerm;60995;52.154;4.498;2023-11-19T12:48:18;53.59;49.43;66.79;;
72415;Laerm;60995;52.154;4.498;2023-11-19T12:50:54;52.01;44.98;68.31;;
72415;Laerm;60995;52.154;4.498;2023-11-19T12:53:10;54.59;43.87;68.64;;
72415;Laerm;60995;52.154;4.498;2023-11-19T12:55:29;52.21;46.89;66.29;;
72415;Laerm;60995;52.154;4.498;2023-11-19T12:57:45;51.55;44.82;60.74;;
72415;Laerm;60995;52.154;4.498;2023-11-19T13:00:02;50.99;43.86;66.25;;
72415;Laerm;60995;52.154;4.498;2023-11-19T13:02:19;54.23;45.98;68.53;;
72415;Laerm;60995;52.154;4.498;2023-11-19T13:04:35;53.96;45.72;72.26;;